Back to top

Worland, WY weather

Worland Municipal Airport, Worland, WY: 12/11/2019 17:53
Visibility10 statute milesclear sky
View 7-Day Forecast
Area Summary
Sky/CloudsSky Clear
Weather [last 24 hours]None
Pressure29.94 in.Hg (1014 hPa)
Dew Point17.1 °F (-8.3 °C)
Relative Humidity88.3 %
Temperature19.9 °F (-6.7 °C)blue thermometer
Reading TimeMinimum to Maximum Temperature
6-hr ending 12/11@16:5319 °F to 30 °F (-7.2 °C to -1.1 °C)
6-hr ending 12/11@10:5312 °F to 25 °F (-11.1 °C to -3.9 °C)
6-hr ending 12/11@04:536.1 °F to 15.1 °F (-14.4 °C to -9.4 °C)
6-hr ending 12/10@22:539 °F to 19 °F (-12.8 °C to -7.2 °C)
24-hr ending 12/10@23:535 °F to 30.9 °F (-15 °C to -0.6 °C)
Wind0 MPH (0 KT) green arrow pointing at 0 degrees
Wind FromNorth (000 Degrees)
Twilight Begins07:02Sunshine Yesterday
Sunrise07:35N/A
Sunset16:36
Twilight Ends17:08
METARKWRL 120053Z AUTO 00000KT 10SM CLR M07/M08 A2994 RMK AO2 SLP197 T10671083
Tags: